Time;durP1;ratioP1;P1;durP2;ratioP2;P2;SDS_P1;SDS_P2;PMS_P1;PMS_P2;Temp;Humidity;BMP_temperature;BMP_pressure;BME280_temperature;BME280_humidity;BME280_pressure;Samples;Min_cycle;Max_cycle;Signal;HPM_P1;HPM_P2
2022/12/14 00:00:45;;;;;;;40.67;18.92;;;-4.20;99.90;;;;;;6181856;23;20016;-82
2022/12/14 00:03:12;;;;;;;34.47;15.55;;;-4.20;99.90;;;;;;6155639;23;20446;-83
2022/12/14 00:05:37;;;;;;;36.13;17.23;;;-4.20;99.90;;;;;;6155990;23;20024;-83
2022/12/14 00:08:04;;;;;;;31.75;15.13;;;-4.20;99.90;;;;;;6154851;23;20742;-83
2022/12/14 00:10:31;;;;;;;35.97;17.48;;;-4.20;99.90;;;;;;6131238;23;20051;-83
2022/12/14 00:12:57;;;;;;;28.90;14.95;;;-4.20;99.90;;;;;;6181907;23;20009;-83
2022/12/14 00:15:23;;;;;;;32.80;15.73;;;-4.20;99.90;;;;;;6155088;23;20419;-82
2022/12/14 00:17:49;;;;;;;31.58;16.20;;;-4.20;99.90;;;;;;6182235;23;20056;-82
2022/12/14 00:20:15;;;;;;;32.67;14.70;;;-4.20;99.90;;;;;;6156260;23;20048;-83
2022/12/14 00:22:40;;;;;;;33.45;14.38;;;-4.20;99.90;;;;;;6182318;23;20363;-81
2022/12/14 00:25:06;;;;;;;37.15;17.08;;;-4.20;99.90;;;;;;6154905;23;20116;-81
2022/12/14 00:27:32;;;;;;;36.33;15.82;;;-4.20;99.90;;;;;;6157663;23;20075;-81
2022/12/14 00:29:58;;;;;;;32.78;15.00;;;-4.20;99.90;;;;;;6184180;23;20425;-81
2022/12/14 00:32:23;;;;;;;33.95;15.40;;;-4.20;99.90;;;;;;6157593;23;20084;-81
2022/12/14 00:34:49;;;;;;;32.28;14.82;;;-4.20;99.90;;;;;;6158161;23;20020;-81
2022/12/14 00:37:15;;;;;;;32.80;15.63;;;-4.20;99.90;;;;;;6157720;23;20044;-81
2022/12/14 00:39:40;;;;;;;33.17;14.35;;;-4.30;99.90;;;;;;6157328;23;20016;-81
2022/12/14 00:42:06;;;;;;;30.80;14.98;;;-4.30;99.90;;;;;;6154727;23;20017;-81
2022/12/14 00:44:32;;;;;;;36.00;15.68;;;-4.30;99.90;;;;;;6132303;23;20021;-82
2022/12/14 00:46:58;;;;;;;36.45;17.27;;;-4.30;99.90;;;;;;6157135;23;20020;-82
2022/12/14 00:49:24;;;;;;;32.20;15.98;;;-4.30;99.90;;;;;;6156528;23;20024;-82
2022/12/14 00:51:49;;;;;;;33.38;16.10;;;-4.30;99.90;;;;;;6155994;23;20358;-82
2022/12/14 00:54:15;;;;;;;31.65;14.88;;;-4.40;99.90;;;;;;6156336;23;20312;-82
2022/12/14 00:56:41;;;;;;;33.25;16.70;;;-4.40;99.90;;;;;;6156016;23;20557;-82
2022/12/14 00:59:06;;;;;;;37.45;17.90;;;-4.40;99.90;;;;;;6156505;23;20343;-82
2022/12/14 01:01:32;;;;;;;40.28;18.83;;;-4.40;99.90;;;;;;6184276;23;20017;-82
2022/12/14 01:04:16;;;;;;;40.38;18.55;;;-4.40;99.90;;;;;;6184267;23;20009;-82
2022/12/14 01:06:46;;;;;;;36.17;18.02;;;-4.50;99.90;;;;;;6158311;23;20012;-82
2022/12/14 01:09:12;;;;;;;39.50;17.33;;;-4.50;99.90;;;;;;6157195;23;20009;-82
2022/12/14 01:11:38;;;;;;;37.35;16.70;;;-4.60;99.90;;;;;;6183265;23;20309;-82
2022/12/14 01:14:05;;;;;;;36.13;16.98;;;-4.60;99.90;;;;;;6155496;23;20040;-82
2022/12/14 01:16:31;;;;;;;41.58;17.83;;;-4.70;99.90;;;;;;6182373;23;20013;-82
2022/12/14 01:18:59;;;;;;;35.03;17.02;;;-4.70;99.90;;;;;;6156764;23;20017;-82
2022/12/14 01:21:25;;;;;;;30.83;15.43;;;-4.70;99.90;;;;;;6156059;23;20017;-82
2022/12/14 01:23:53;;;;;;;32.00;15.63;;;-4.70;99.90;;;;;;6182105;23;20331;-82
2022/12/14 01:26:21;;;;;;;38.42;16.80;;;-4.80;99.90;;;;;;6154955;23;20017;-82
2022/12/14 01:28:52;;;;;;;34.15;16.58;;;-4.80;99.90;;;;;;6156113;23;20133;-82
2022/12/14 01:31:21;;;;;;;30.00;15.65;;;-4.80;99.90;;;;;;6155876;23;20017;-82
2022/12/14 01:33:48;;;;;;;28.98;15.25;;;-4.80;99.90;;;;;;6156696;23;20017;-82
2022/12/14 01:36:16;;;;;;;27.50;13.88;;;-4.90;99.90;;;;;;6181552;23;20078;-82
2022/12/14 01:38:42;;;;;;;27.25;13.57;;;-4.90;99.90;;;;;;6156956;23;20334;-82
2022/12/14 01:41:15;;;;;;;30.98;15.05;;;-4.90;99.90;;;;;;6182242;23;20366;-82
2022/12/14 01:43:54;;;;;;;35.53;16.83;;;-4.90;99.90;;;;;;6182177;23;20065;-82
2022/12/14 01:46:26;;;;;;;33.90;14.27;;;-5.00;99.90;;;;;;6156356;23;20060;-82
2022/12/14 01:48:58;;;;;;;30.05;13.20;;;-5.00;99.90;;;;;;6183498;23;20088;-81
2022/12/14 01:51:25;;;;;;;32.08;14.25;;;-5.00;99.90;;;;;;6157073;23;20021;-82
2022/12/14 01:53:52;;;;;;;33.20;15.35;;;-5.00;99.90;;;;;;6182850;23;20143;-83
2022/12/14 01:56:18;;;;;;;31.75;14.30;;;-5.00;99.90;;;;;;6182549;23;20311;-83
2022/12/14 01:58:44;;;;;;;31.85;14.88;;;-5.00;99.90;;;;;;6156108;23;20036;-83
2022/12/14 02:01:10;;;;;;;30.38;13.68;;;-5.00;99.90;;;;;;6183514;23;20024;-83
2022/12/14 02:03:41;;;;;;;36.55;15.93;;;-5.10;99.90;;;;;;6184122;23;20005;-83
2022/12/14 02:06:25;;;;;;;31.10;14.85;;;-5.10;99.90;;;;;;6182520;23;20312;-82
2022/12/14 02:08:53;;;;;;;28.85;14.43;;;-5.10;99.90;;;;;;6155770;23;20017;-82
2022/12/14 02:11:31;;;;;;;28.05;12.98;;;-5.20;99.90;;;;;;6180471;23;20430;-82
2022/12/14 02:13:57;;;;;;;28.02;13.73;;;-5.10;99.90;;;;;;6155904;23;20108;-82
2022/12/14 02:16:23;;;;;;;28.80;14.65;;;-5.20;99.90;;;;;;6156948;23;20037;-82
2022/12/14 02:18:48;;;;;;;31.17;15.18;;;-5.20;99.90;;;;;;6157394;23;20448;-82
2022/12/14 02:21:35;;;;;;;30.90;14.18;;;-5.20;99.90;;;;;;6131166;23;20013;-82
2022/12/14 02:24:10;;;;;;;31.23;14.90;;;-5.20;99.90;;;;;;6155982;23;20096;-82
2022/12/14 02:27:00;;;;;;;29.52;14.25;;;-5.20;99.90;;;;;;6183050;23;20063;-82
2022/12/14 02:29:42;;;;;;;40.08;17.65;;;-5.20;99.90;;;;;;6156927;23;20338;-82
2022/12/14 02:32:26;;;;;;;29.35;14.15;;;-5.30;99.90;;;;;;6155902;23;20013;-82
2022/12/14 02:35:23;;;;;;;28.33;13.60;;;-5.30;99.90;;;;;;6155897;23;20017;-82
2022/12/14 02:37:48;;;;;;;31.70;15.40;;;-5.30;99.90;;;;;;6156150;23;20024;-82
2022/12/14 02:40:35;;;;;;;31.25;13.77;;;-5.30;99.90;;;;;;6182575;23;20017;-82
2022/12/14 02:43:22;;;;;;;31.48;13.77;;;-5.40;99.90;;;;;;6181196;23;20338;-82
2022/12/14 02:46:35;;;;;;;26.30;13.32;;;-5.40;99.90;;;;;;6182631;23;20086;-81
2022/12/14 02:49:24;;;;;;;30.60;13.18;;;-5.40;99.90;;;;;;6014535;23;20455;-81
2022/12/14 02:51:58;;;;;;;31.17;14.43;;;-5.40;99.90;;;;;;6038548;23;20026;-81
2022/12/14 02:54:37;;;;;;;32.88;14.23;;;-5.50;99.90;;;;;;6062457;23;20367;-81
2022/12/14 02:57:19;;;;;;;32.55;12.90;;;-5.50;99.90;;;;;;6062943;23;20436;-81
2022/12/14 02:59:48;;;;;;;27.90;13.30;;;-5.50;99.90;;;;;;6036167;23;20055;-81
2022/12/14 03:02:15;;;;;;;31.00;14.10;;;-5.50;99.90;;;;;;6061556;23;20011;-82
2022/12/14 03:04:46;;;;;;;29.50;14.10;;;-5.50;99.90;;;;;;6062018;23;20466;-82
2022/12/14 03:08:01;;;;;;;35.85;14.35;;;-5.60;99.90;;;;;;6036488;23;20492;-81
2022/12/14 03:10:45;;;;;;;34.33;14.00;;;-5.60;99.90;;;;;;6006009;23;20019;-82
2022/12/14 03:13:31;;;;;;;33.15;14.07;;;-5.70;99.90;;;;;;6038241;23;20384;-82
2022/12/14 03:16:03;;;;;;;29.83;13.63;;;-5.70;99.90;;;;;;6039284;23;20011;-82
2022/12/14 03:18:35;;;;;;;34.05;15.00;;;-5.70;99.90;;;;;;6015321;23;20448;-82
2022/12/14 03:21:04;;;;;;;32.30;14.43;;;-5.60;99.90;;;;;;6037989;23;20030;-82
2022/12/14 03:23:33;;;;;;;30.10;14.70;;;-5.70;99.90;;;;;;6066629;23;20023;-82
2022/12/14 03:26:07;;;;;;;31.05;14.32;;;-5.70;99.90;;;;;;6182517;23;20062;-82
2022/12/14 03:28:45;;;;;;;31.25;15.18;;;-5.70;99.90;;;;;;6183022;23;20017;-82
2022/12/14 03:31:18;;;;;;;33.08;14.38;;;-5.70;99.90;;;;;;6155620;23;20017;-81
2022/12/14 03:33:46;;;;;;;37.35;16.08;;;-5.70;99.90;;;;;;6156258;23;20128;-82
2022/12/14 03:36:28;;;;;;;28.90;13.90;;;-5.70;99.90;;;;;;6155743;23;20021;-82
2022/12/14 03:38:58;;;;;;;31.27;13.63;;;-5.80;99.90;;;;;;6182576;23;20434;-82
2022/12/14 03:41:36;;;;;;;28.35;12.75;;;-5.80;99.90;;;;;;6183052;23;20013;-82
2022/12/14 03:44:05;;;;;;;34.60;13.50;;;-5.80;99.90;;;;;;6181527;23;20044;-82
2022/12/14 03:46:44;;;;;;;33.45;13.07;;;-5.80;99.90;;;;;;6182779;23;20024;-82
2022/12/14 03:49:33;;;;;;;30.92;14.07;;;-5.80;99.90;;;;;;6155932;23;20021;-82
2022/12/14 03:52:02;;;;;;;29.75;13.52;;;-5.80;99.90;;;;;;6037821;23;20089;-82
2022/12/14 03:54:41;;;;;;;27.52;12.27;;;-5.80;99.90;;;;;;6037782;23;20029;-82
2022/12/14 03:57:45;;;;;;;28.38;14.02;;;-5.80;99.90;;;;;;6040844;23;20015;-82
2022/12/14 04:00:15;;;;;;;30.85;12.95;;;-5.90;99.90;;;;;;6017144;23;20018;-82
2022/12/14 04:02:57;;;;;;;26.48;13.10;;;-5.90;99.90;;;;;;6064413;23;20133;-82
2022/12/14 04:05:27;;;;;;;30.13;12.88;;;-5.90;99.90;;;;;;6063178;23;20018;-82
2022/12/14 04:08:05;;;;;;;29.55;13.57;;;-5.90;99.90;;;;;;6038935;23;20022;-82
2022/12/14 04:19:11;;;;;;;;;;;-6.00;99.90;;;;;;6039211;23;20045;-82
2022/12/14 04:21:57;;;;;;;30.92;14.00;;;-6.10;99.90;;;;;;6063232;23;19969;-82
2022/12/14 04:28:00;;;;;;;33.20;13.52;;;-6.00;99.90;;;;;;6064067;23;20014;-82
2022/12/14 04:30:30;;;;;;;31.23;13.27;;;-6.10;99.90;;;;;;6150178;23;20017;-81
2022/12/14 04:33:45;;;;;;;31.60;12.88;;;-6.10;99.90;;;;;;6157265;23;20255;-81
2022/12/14 04:35:53;;;;;;;29.88;14.02;;;-6.00;99.90;;;;;;6183081;23;20024;-81
2022/12/14 04:38:26;;;;;;;23.88;11.50;;;-6.00;99.90;;;;;;6157764;23;20013;-82
2022/12/14 04:40:59;;;;;;;26.05;13.02;;;-6.10;99.90;;;;;;6183379;23;20092;-82
2022/12/14 04:43:33;;;;;;;30.58;13.57;;;-6.10;99.90;;;;;;6157772;23;20086;-81
2022/12/14 04:46:12;;;;;;;29.38;12.00;;;-6.10;99.90;;;;;;6183644;23;20017;-82
2022/12/14 04:48:41;;;;;;;22.40;11.10;;;-6.10;99.90;;;;;;6184976;23;20041;-81
2022/12/14 04:51:16;;;;;;;31.33;13.85;;;-6.10;99.90;;;;;;6183840;23;20009;-82
2022/12/14 04:53:45;;;;;;;24.40;11.82;;;-6.10;99.90;;;;;;6184243;23;20013;-83
2022/12/14 04:56:17;;;;;;;26.95;12.65;;;-6.00;99.90;;;;;;6184258;23;20095;-81
2022/12/14 04:58:43;;;;;;;27.00;12.55;;;-6.10;99.90;;;;;;6157560;23;20009;-81
2022/12/14 05:01:24;;;;;;;27.00;12.32;;;-6.10;99.90;;;;;;6183676;23;20363;-82
2022/12/14 05:04:00;;;;;;;29.03;12.67;;;-6.10;99.90;;;;;;6183526;23;20072;-82
2022/12/14 05:06:33;;;;;;;25.52;11.40;;;-6.10;99.90;;;;;;6157385;23;20049;-81
2022/12/14 05:09:16;;;;;;;27.27;12.43;;;-6.20;99.90;;;;;;6183925;23;20362;-81
2022/12/14 05:12:08;;;;;;;32.00;13.57;;;-6.20;99.90;;;;;;6181429;23;20016;-81
2022/12/14 05:14:40;;;;;;;26.45;11.23;;;-6.20;99.90;;;;;;6182367;23;20017;-81
2022/12/14 05:17:07;;;;;;;30.88;12.35;;;-6.20;99.90;;;;;;6181967;23;20005;-80
2022/12/14 05:19:33;;;;;;;25.98;12.27;;;-6.20;99.90;;;;;;6131220;23;20389;-82
2022/12/14 05:22:05;;;;;;;28.95;12.73;;;-6.20;99.90;;;;;;6126860;23;20133;-83
2022/12/14 05:24:31;;;;;;;32.33;12.40;;;-6.30;99.90;;;;;;6127597;23;20016;-82
2022/12/14 05:26:57;;;;;;;32.33;12.27;;;-6.30;99.90;;;;;;6152862;23;20014;-82
2022/12/14 05:29:22;;;;;;;32.85;13.48;;;-6.30;99.90;;;;;;6126387;23;20488;-82
2022/12/14 05:31:49;;;;;;;30.30;13.18;;;-6.30;99.90;;;;;;6150329;23;20096;-82
2022/12/14 05:34:14;;;;;;;26.50;13.15;;;-6.30;99.90;;;;;;6125963;23;20023;-82
2022/12/14 05:36:40;;;;;;;31.75;14.00;;;-6.30;99.90;;;;;;6126995;23;20447;-82
2022/12/14 05:39:05;;;;;;;35.35;13.23;;;-6.30;99.90;;;;;;6127438;23;20014;-83
2022/12/14 05:41:31;;;;;;;24.30;11.52;;;-6.30;99.90;;;;;;6128256;23;20439;-82
2022/12/14 05:43:57;;;;;;;28.50;11.65;;;-6.30;99.90;;;;;;6153684;23;20096;-82
2022/12/14 05:46:22;;;;;;;33.30;14.75;;;-6.30;99.90;;;;;;6150283;23;20018;-80
2022/12/14 05:48:48;;;;;;;28.15;13.13;;;-6.30;99.90;;;;;;6150099;23;20414;-82
2022/12/14 05:51:13;;;;;;;28.52;13.18;;;-6.30;99.90;;;;;;6151764;23;20431;-81
2022/12/14 05:53:39;;;;;;;36.35;13.90;;;-6.30;99.90;;;;;;6127644;23;20013;-80
2022/12/14 05:56:07;;;;;;;31.45;13.68;;;-6.30;99.90;;;;;;6149975;23;20009;-81
2022/12/14 05:58:33;;;;;;;29.30;12.90;;;-6.30;99.90;;;;;;6154919;23;20021;-84
2022/12/14 06:01:00;;;;;;;30.15;13.27;;;-6.40;99.90;;;;;;6128613;23;20014;-81
2022/12/14 06:03:27;;;;;;;24.55;12.73;;;-6.30;99.90;;;;;;6102295;23;20013;-82
2022/12/14 06:05:52;;;;;;;26.77;13.10;;;-6.20;99.90;;;;;;6125818;23;20096;-82
2022/12/14 06:08:18;;;;;;;36.75;14.85;;;-6.30;99.90;;;;;;6126160;23;20106;-81
2022/12/14 06:10:44;;;;;;;33.95;14.60;;;-6.30;99.90;;;;;;6152463;23;20013;-82
2022/12/14 06:13:09;;;;;;;31.85;13.38;;;-6.30;99.90;;;;;;6151247;23;20089;-82
2022/12/14 06:15:35;;;;;;;33.45;14.20;;;-6.30;99.90;;;;;;6101028;23;20014;-82
2022/12/14 06:18:01;;;;;;;34.35;15.05;;;-6.30;99.90;;;;;;6126667;23;20021;-82
2022/12/14 06:20:26;;;;;;;32.70;12.25;;;-6.30;99.90;;;;;;6125837;23;20339;-82
2022/12/14 06:22:55;;;;;;;32.05;13.95;;;-6.30;99.90;;;;;;6127536;23;20025;-82
2022/12/14 06:25:21;;;;;;;34.83;12.98;;;-6.30;99.90;;;;;;6126644;23;20024;-82
2022/12/14 06:27:46;;;;;;;29.17;12.88;;;-6.30;99.90;;;;;;6127134;23;20017;-83
2022/12/14 06:30:12;;;;;;;33.42;14.57;;;-6.30;99.90;;;;;;6102255;23;20052;-83
2022/12/14 06:32:38;;;;;;;33.05;14.48;;;-6.30;99.90;;;;;;6127844;23;20343;-84
2022/12/14 06:35:04;;;;;;;29.05;13.43;;;-6.30;99.90;;;;;;6125431;23;20044;-83
2022/12/14 06:37:30;;;;;;;34.20;14.35;;;-6.30;99.90;;;;;;6126997;23;20021;-83
2022/12/14 06:39:56;;;;;;;37.20;15.18;;;-6.30;99.90;;;;;;6125872;23;20023;-82
2022/12/14 06:42:22;;;;;;;30.52;14.65;;;-6.30;99.90;;;;;;6153251;23;20009;-83
2022/12/14 06:44:47;;;;;;;29.85;13.52;;;-6.40;99.90;;;;;;6150467;23;20089;-84
2022/12/14 06:47:13;;;;;;;30.00;12.65;;;-6.40;99.90;;;;;;6124288;23;20017;-83
2022/12/14 06:49:39;;;;;;;30.48;13.80;;;-6.40;99.90;;;;;;6153093;23;20025;-83
2022/12/14 06:52:04;;;;;;;31.40;12.77;;;-6.40;99.90;;;;;;6151638;23;20023;-83
2022/12/14 06:54:30;;;;;;;28.30;12.95;;;-6.40;99.90;;;;;;6127286;23;20041;-84
2022/12/14 06:56:56;;;;;;;32.08;12.93;;;-6.40;99.90;;;;;;6152870;23;20013;-83
2022/12/14 06:59:22;;;;;;;38.40;14.18;;;-6.40;99.90;;;;;;6150777;23;20434;-83
2022/12/14 07:01:47;;;;;;;31.95;12.32;;;-6.40;99.90;;;;;;6126756;23;20014;-84
2022/12/14 07:04:15;;;;;;;33.30;12.48;;;-6.50;99.90;;;;;;6126514;23;20140;-83
2022/12/14 07:06:41;;;;;;;29.35;13.82;;;-6.50;99.90;;;;;;6101962;23;20541;-83
2022/12/14 07:09:10;;;;;;;31.38;13.48;;;-6.50;99.90;;;;;;6126860;23;20040;-84
2022/12/14 07:11:36;;;;;;;33.55;13.40;;;-6.50;99.90;;;;;;6154041;23;20067;-84
2022/12/14 07:14:04;;;;;;;29.27;13.63;;;-6.50;99.90;;;;;;6152804;23;20006;-83
2022/12/14 07:16:31;;;;;;;32.17;13.10;;;-6.50;99.90;;;;;;6126442;23;20009;-83
2022/12/14 07:18:57;;;;;;;30.23;12.30;;;-6.50;99.90;;;;;;6151413;23;20024;-84
2022/12/14 07:21:24;;;;;;;30.20;12.23;;;-6.50;99.90;;;;;;6174458;23;20334;-82
2022/12/14 07:23:51;;;;;;;29.92;12.48;;;-6.50;99.90;;;;;;6153566;23;20021;-83
2022/12/14 07:26:25;;;;;;;27.45;12.32;;;-6.50;99.90;;;;;;6154792;23;20051;-83
2022/12/14 07:28:52;;;;;;;29.67;13.27;;;-6.60;99.90;;;;;;6154131;23;20020;-83
2022/12/14 07:31:22;;;;;;;33.20;13.80;;;-6.60;99.90;;;;;;6132013;23;20045;-83
2022/12/14 07:33:50;;;;;;;34.53;13.10;;;-6.60;99.90;;;;;;6157207;23;20068;-83
2022/12/14 07:36:18;;;;;;;27.92;13.50;;;-6.60;99.90;;;;;;6182506;23;20009;-84
2022/12/14 07:38:46;;;;;;;29.23;13.10;;;-6.50;99.90;;;;;;6155482;23;20116;-83
2022/12/14 07:41:29;;;;;;;32.00;12.57;;;-6.50;99.90;;;;;;6154859;23;20346;-84
2022/12/14 07:43:55;;;;;;;39.20;15.15;;;-6.50;99.90;;;;;;6130243;23;20024;-84
2022/12/14 07:46:23;;;;;;;30.45;11.80;;;-6.50;99.90;;;;;;6177882;23;20017;-84
2022/12/14 07:48:52;;;;;;;29.30;12.55;;;-6.50;99.90;;;;;;6154269;23;20017;-83
2022/12/14 07:51:20;;;;;;;29.60;12.52;;;-6.50;99.90;;;;;;6181376;23;20379;-85
2022/12/14 07:53:46;;;;;;;32.72;12.27;;;-6.50;99.90;;;;;;6181678;23;20379;-83
2022/12/14 07:56:15;;;;;;;29.88;12.77;;;-6.50;99.90;;;;;;6181803;23;20323;-83
2022/12/14 07:58:41;;;;;;;27.38;12.80;;;-6.50;99.90;;;;;;6153845;23;20092;-84
2022/12/14 08:01:28;;;;;;;36.55;12.10;;;-6.50;99.90;;;;;;6180816;23;20406;-85
2022/12/14 08:03:59;;;;;;;32.03;12.65;;;-6.50;99.90;;;;;;6155581;23;20458;-82
2022/12/14 08:06:27;;;;;;;27.20;10.73;;;-6.50;99.90;;;;;;6179945;23;20739;-84
2022/12/14 08:08:54;;;;;;;30.98;12.70;;;-6.50;99.90;;;;;;6154623;23;20095;-83
2022/12/14 08:11:24;;;;;;;27.83;11.88;;;-6.50;99.90;;;;;;6182866;23;20390;-89
2022/12/14 08:13:56;;;;;;;34.58;15.30;;;-6.40;99.90;;;;;;6183770;23;20013;-84
2022/12/14 08:16:22;;;;;;;31.10;11.68;;;-6.30;99.90;;;;;;6155844;23;20040;-83
2022/12/14 08:18:49;;;;;;;27.80;12.98;;;-6.30;99.90;;;;;;6156028;23;20076;-83
2022/12/14 08:21:17;;;;;;;29.80;12.38;;;-6.30;99.90;;;;;;6100116;23;1165090;-84
2022/12/14 08:23:43;;;;;;;29.20;11.98;;;-6.30;99.90;;;;;;6154633;23;20399;-87
2022/12/14 08:26:12;;;;;;;28.20;12.98;;;-6.40;99.90;;;;;;6152299;23;20116;-87
2022/12/14 08:28:37;;;;;;;29.70;12.98;;;-6.40;99.90;;;;;;6155432;23;20333;-88
2022/12/14 08:31:12;;;;;;;28.85;13.30;;;-6.40;99.90;;;;;;6178636;23;20028;-87
2022/12/14 08:33:39;;;;;;;27.25;12.77;;;-6.40;99.90;;;;;;6156099;23;20020;-86
2022/12/14 08:36:07;;;;;;;28.40;11.43;;;-6.40;99.90;;;;;;6153129;23;20056;-87
2022/12/14 08:38:32;;;;;;;24.60;11.55;;;-6.40;99.90;;;;;;6153112;23;20017;-87
2022/12/14 08:41:12;;;;;;;28.33;12.55;;;-6.50;99.90;;;;;;6154662;23;20058;-86
2022/12/14 08:43:39;;;;;;;26.70;11.63;;;-6.40;99.90;;;;;;6155779;23;20005;-86
2022/12/14 08:46:12;;;;;;;27.42;10.80;;;-6.40;99.90;;;;;;6153513;23;20045;-86
2022/12/14 08:48:37;;;;;;;29.73;11.32;;;-6.40;99.90;;;;;;6154128;23;20415;-86
2022/12/14 08:51:05;;;;;;;25.90;10.95;;;-6.40;99.90;;;;;;6177725;23;20390;-86
2022/12/14 08:53:31;;;;;;;28.95;12.00;;;-6.40;99.90;;;;;;6128674;23;20064;-86
2022/12/14 08:55:57;;;;;;;24.48;10.82;;;-6.30;99.90;;;;;;6152736;23;20017;-86
2022/12/14 08:58:23;;;;;;;29.35;13.38;;;-6.30;99.90;;;;;;6155075;23;20093;-86
2022/12/14 09:00:49;;;;;;;33.53;13.73;;;-6.20;99.90;;;;;;6155569;23;20042;-87
2022/12/14 09:03:15;;;;;;;30.02;12.90;;;-6.20;99.90;;;;;;6153460;23;20013;-86
2022/12/14 09:05:41;;;;;;;26.35;11.60;;;-6.10;99.90;;;;;;6152737;23;20092;-86
2022/12/14 09:08:06;;;;;;;31.98;12.23;;;-6.10;99.90;;;;;;6175971;23;20387;-86
2022/12/14 09:10:32;;;;;;;29.08;11.77;;;-6.10;99.90;;;;;;6178534;23;20017;-86
2022/12/14 09:12:57;;;;;;;23.58;11.77;;;-6.00;99.90;;;;;;6178228;23;20088;-86
2022/12/14 09:15:23;;;;;;;31.30;12.75;;;-6.00;99.90;;;;;;6153540;23;20026;-86
2022/12/14 09:17:49;;;;;;;32.80;13.07;;;-6.00;99.90;;;;;;6153500;23;20014;-85
2022/12/14 09:20:16;;;;;;;30.60;12.85;;;-5.90;99.90;;;;;;6148727;23;20459;-86
2022/12/14 09:22:41;;;;;;;30.52;11.55;;;-5.90;99.90;;;;;;6128632;23;20024;-87
2022/12/14 09:25:08;;;;;;;28.55;11.95;;;-5.80;99.90;;;;;;6152096;23;20018;-86
2022/12/14 09:27:34;;;;;;;24.80;10.88;;;-5.80;99.90;;;;;;6130065;23;20309;-87
2022/12/14 09:29:59;;;;;;;27.55;12.45;;;-5.70;99.90;;;;;;6130807;23;20017;-86
2022/12/14 09:32:28;;;;;;;30.23;11.70;;;-5.70;99.90;;;;;;6135245;23;20025;-86
2022/12/14 09:34:54;;;;;;;28.15;12.70;;;-5.60;99.90;;;;;;6131351;23;20079;-87
2022/12/14 09:37:19;;;;;;;25.65;11.48;;;-5.50;99.90;;;;;;6129980;23;20013;-87
2022/12/14 09:39:45;;;;;;;31.38;12.60;;;-5.40;99.90;;;;;;6154433;23;20013;-87
2022/12/14 09:42:44;;;;;;;30.23;11.88;;;-5.40;99.90;;;;;;6154666;23;20013;-87
2022/12/14 09:45:27;;;;;;;33.28;13.60;;;-5.40;99.90;;;;;;6153141;23;20100;-88
2022/12/14 09:48:05;;;;;;;34.53;14.60;;;-5.30;99.90;;;;;;6129278;23;20017;-88
2022/12/14 09:50:31;;;;;;;35.08;14.30;;;-5.30;99.90;;;;;;6155934;23;20510;-87
2022/12/14 09:53:01;;;;;;;30.30;11.95;;;-5.20;99.90;;;;;;6128225;23;20081;-87
2022/12/14 09:55:50;;;;;;;26.30;11.68;;;-5.10;99.90;;;;;;6128627;23;20024;-86
2022/12/14 09:58:27;;;;;;;31.75;13.43;;;-5.10;99.90;;;;;;6128248;23;20010;-87
2022/12/14 10:00:57;;;;;;;29.10;12.30;;;-5.00;99.90;;;;;;6127563;23;20324;-87
2022/12/14 10:03:39;;;;;;;26.92;12.68;;;-5.00;99.90;;;;;;6154427;23;20555;-87
2022/12/14 10:06:27;;;;;;;30.40;14.02;;;-5.00;99.90;;;;;;6104236;23;20084;-88
2022/12/14 10:09:10;;;;;;;31.40;14.00;;;-4.90;99.90;;;;;;6154101;23;20169;-88
2022/12/14 10:12:00;;;;;;;30.17;13.77;;;-4.80;99.90;;;;;;6128830;23;20033;-87
2022/12/14 10:14:29;;;;;;;29.42;12.82;;;-4.80;99.90;;;;;;6155413;23;20013;-85
2022/12/14 10:17:04;;;;;;;29.88;15.70;;;-4.70;99.90;;;;;;6155486;23;20214;-87
2022/12/14 10:19:30;;;;;;;31.27;12.90;;;-4.70;99.90;;;;;;6130993;23;20025;-87
2022/12/14 10:22:14;;;;;;;25.80;12.02;;;-4.60;99.90;;;;;;6157899;23;20017;-88
2022/12/14 10:25:24;;;;;;;31.40;13.55;;;-4.40;99.90;;;;;;6138930;23;20065;-87
2022/12/14 10:28:04;;;;;;;26.52;11.63;;;-4.40;99.90;;;;;;6079248;23;20027;-87
2022/12/14 10:30:30;;;;;;;22.67;10.10;;;-4.30;99.90;;;;;;6158107;23;20012;-87
2022/12/14 10:33:20;;;;;;;25.77;11.95;;;-4.30;99.90;;;;;;6165325;23;20020;-87
2022/12/14 10:36:00;;;;;;;28.00;12.40;;;-4.30;99.90;;;;;;6172562;23;20021;-87
2022/12/14 10:38:50;;;;;;;23.58;11.25;;;-4.20;99.90;;;;;;6173921;23;20072;-87
2022/12/14 10:41:22;;;;;;;27.33;11.45;;;-4.10;99.90;;;;;;6174415;23;20015;-87
2022/12/14 10:44:10;;;;;;;24.85;11.27;;;-4.00;99.90;;;;;;6174371;23;20013;-87
2022/12/14 10:46:45;;;;;;;25.40;11.93;;;-4.00;99.90;;;;;;6181850;23;20074;-87
2022/12/14 10:49:15;;;;;;;28.45;11.60;;;-4.00;99.90;;;;;;6179253;23;20043;-87
2022/12/14 10:51:42;;;;;;;29.40;11.82;;;-3.90;99.90;;;;;;6178352;23;20013;-86
2022/12/14 10:54:25;;;;;;;25.73;11.10;;;-3.90;99.90;;;;;;6192071;23;20009;-88
2022/12/14 10:56:51;;;;;;;24.02;11.32;;;-3.80;99.90;;;;;;6191045;23;20332;-87
2022/12/14 10:59:16;;;;;;;27.55;11.75;;;-3.80;99.90;;;;;;6199780;23;20009;-86
2022/12/14 11:01:44;;;;;;;26.75;11.73;;;-3.80;99.90;;;;;;6203147;23;20016;-85
2022/12/14 11:04:34;;;;;;;29.25;12.82;;;-3.70;99.90;;;;;;6207298;23;20056;-85
2022/12/14 11:07:06;;;;;;;23.27;9.75;;;-3.60;99.90;;;;;;6209008;23;20020;-86
2022/12/14 11:09:33;;;;;;;24.27;11.73;;;-3.60;99.90;;;;;;6209916;23;20001;-85
2022/12/14 11:12:24;;;;;;;23.45;11.27;;;-3.60;99.90;;;;;;6180137;23;20013;-84
2022/12/14 11:15:00;;;;;;;33.78;15.20;;;-3.50;99.90;;;;;;6188576;23;20013;-85
2022/12/14 11:17:42;;;;;;;34.97;16.85;;;-3.50;99.90;;;;;;6179413;23;20025;-86
2022/12/14 11:20:23;;;;;;;29.60;11.57;;;-3.30;99.90;;;;;;6174443;23;20027;-86
2022/12/14 11:22:54;;;;;;;26.63;11.80;;;-3.00;99.90;;;;;;6165070;23;20041;-85
2022/12/14 11:25:42;;;;;;;23.33;11.63;;;-2.90;99.90;;;;;;6163501;23;20017;-86
2022/12/14 11:28:21;;;;;;;28.02;13.45;;;-2.80;99.90;;;;;;6166830;23;20065;-83
2022/12/14 11:31:03;;;;;;;28.52;12.80;;;-2.70;99.90;;;;;;6162079;23;20079;-87
2022/12/14 11:34:00;;;;;;;29.63;13.32;;;-2.50;99.90;;;;;;6162593;23;20030;-86
2022/12/14 11:36:33;;;;;;;21.83;11.07;;;-2.40;99.90;;;;;;6131093;23;20028;-87
2022/12/14 11:39:02;;;;;;;24.77;11.02;;;-2.40;99.90;;;;;;6154826;23;20029;-89
2022/12/14 11:41:35;;;;;;;23.95;11.57;;;-2.30;99.90;;;;;;6155327;23;20014;-88
2022/12/14 11:44:13;;;;;;;25.75;10.65;;;-2.30;99.90;;;;;;6128656;23;20005;-88
2022/12/14 11:46:59;;;;;;;25.65;9.93;;;-2.30;99.90;;;;;;6154385;23;20022;-87
2022/12/14 11:49:27;;;;;;;26.48;11.50;;;-2.10;99.90;;;;;;6155604;23;20390;-89
2022/12/14 11:52:03;;;;;;;21.23;9.07;;;-2.00;99.90;;;;;;6152936;23;20018;-88
2022/12/14 11:54:34;;;;;;;24.77;10.77;;;-1.90;99.90;;;;;;6179460;23;20068;-89
2022/12/14 11:57:06;;;;;;;20.77;9.73;;;-1.80;99.90;;;;;;6155694;23;20010;-88
2022/12/14 12:00:04;;;;;;;18.17;8.88;;;-1.80;99.90;;;;;;6155422;23;20014;-88
2022/12/14 12:02:34;;;;;;;25.38;10.15;;;-1.70;99.90;;;;;;6143772;23;20013;-87
2022/12/14 12:05:16;;;;;;;24.60;10.88;;;-1.60;99.90;;;;;;6155660;23;20013;-90
2022/12/14 12:07:51;;;;;;;21.08;8.30;;;-1.60;99.90;;;;;;6161487;23;20024;-88
2022/12/14 12:10:43;;;;;;;20.67;10.35;;;-1.60;99.90;;;;;;6150542;23;20013;-87
2022/12/14 12:13:31;;;;;;;22.40;10.68;;;-1.60;99.90;;;;;;6152845;23;20056;-87
2022/12/14 12:16:05;;;;;;;23.02;11.73;;;-1.60;99.90;;;;;;6154284;23;20013;-87
2022/12/14 12:18:35;;;;;;;22.83;11.98;;;-1.60;99.90;;;;;;6154285;23;20009;-91
2022/12/14 12:21:19;;;;;;;23.45;12.55;;;-1.60;99.90;;;;;;6157929;23;20017;-96
2022/12/14 12:23:56;;;;;;;22.23;11.80;;;-1.60;99.90;;;;;;6159093;23;20020;-95
2022/12/14 12:26:33;;;;;;;21.50;11.90;;;-1.60;99.90;;;;;;6158448;23;20088;-94
2022/12/14 12:29:01;;;;;;;21.23;10.65;;;-1.60;99.90;;;;;;6162173;23;20032;-95
2022/12/14 12:31:37;;;;;;;23.65;11.30;;;-1.60;99.90;;;;;;6161313;23;20024;-95
2022/12/14 12:34:15;;;;;;;18.55;9.43;;;-1.50;99.90;;;;;;6184037;23;20013;-94
2022/12/14 12:36:43;;;;;;;20.73;9.65;;;-1.50;99.90;;;;;;6160387;23;20014;-95
2022/12/14 12:39:15;;;;;;;21.52;10.32;;;-1.50;99.90;;;;;;6184101;23;20021;-94
2022/12/14 12:42:16;;;;;;;23.15;10.85;;;-1.40;99.90;;;;;;6161814;23;20048;-94
2022/12/14 12:44:51;;;;;;;24.90;11.37;;;-1.40;99.90;;;;;;6185162;23;20009;-96
2022/12/14 12:47:32;;;;;;;21.90;9.85;;;-1.40;99.90;;;;;;6157651;23;20252;-95
2022/12/14 12:50:05;;;;;;;25.85;9.75;;;-1.40;99.90;;;;;;6186550;23;20023;-96
2022/12/14 12:52:47;;;;;;;21.08;10.68;;;-1.40;99.90;;;;;;6164545;23;20005;-96
2022/12/14 12:55:17;;;;;;;23.45;11.10;;;-1.30;99.90;;;;;;6189428;23;20018;-95
2022/12/14 12:57:48;;;;;;;23.75;12.27;;;-1.30;99.90;;;;;;6156099;23;20018;-87
2022/12/14 13:00:17;;;;;;;23.85;11.50;;;-1.30;99.90;;;;;;6155351;23;20025;-86
2022/12/14 13:02:58;;;;;;;29.95;13.10;;;-1.30;99.90;;;;;;6154571;23;20036;-88
2022/12/14 13:05:27;;;;;;;27.55;12.23;;;-1.30;99.90;;;;;;6156674;23;20017;-87